createdAt,value
2023-04-30T00:01:38.791Z,98097.28
2023-04-30T00:04:06.764Z,98089.53
2023-04-30T00:06:34.284Z,98085.00
2023-04-30T00:09:01.838Z,98092.81
2023-04-30T00:11:29.309Z,98097.47
2023-04-30T00:13:57.202Z,98098.72
2023-04-30T00:16:24.819Z,98097.91
2023-04-30T00:18:52.274Z,98092.81
2023-04-30T00:21:19.778Z,98099.31
2023-04-30T00:23:47.163Z,98096.84
2023-04-30T00:26:14.636Z,98097.28
2023-04-30T00:28:46.949Z,98103.88
2023-04-30T00:31:14.441Z,98109.34
2023-04-30T00:33:41.927Z,98105.69
2023-04-30T00:36:09.350Z,98105.88
2023-04-30T00:38:36.883Z,98110.44
2023-04-30T00:41:04.846Z,98110.00
2023-04-30T00:43:32.341Z,98109.22
2023-04-30T00:45:59.905Z,98111.03
2023-04-30T00:48:27.982Z,98114.72
2023-04-30T00:50:55.892Z,98115.09
2023-04-30T00:53:23.422Z,98119.63
2023-04-30T00:55:51.412Z,98118.19
2023-04-30T00:58:19.425Z,98119.84
2023-04-30T01:00:47.428Z,98127.84
2023-04-30T01:03:15.134Z,98128.84
2023-04-30T01:05:42.778Z,98131.31
2023-04-30T01:08:11.748Z,98135.16
2023-04-30T01:10:48.959Z,98135.59
2023-04-30T01:13:30.483Z,98142.97
2023-04-30T01:16:12.090Z,98139.94
2023-04-30T01:18:49.346Z,98144.44
2023-04-30T01:21:20.194Z,98144.06
2023-04-30T01:24:21.283Z,98143.91
2023-04-30T01:26:48.791Z,98139.41
2023-04-30T01:29:20.088Z,98139.44
2023-04-30T01:31:47.548Z,98143.72
2023-04-30T01:34:15.303Z,98147.06
2023-04-30T01:37:16.122Z,98153.00
2023-04-30T01:40:02.408Z,98152.81
2023-04-30T01:42:53.717Z,98149.81
2023-04-30T01:45:24.297Z,98168.03
2023-04-30T01:48:03.799Z,98165.97
2023-04-30T01:50:42.607Z,98176.00
2023-04-30T01:53:17.097Z,98166.41
2023-04-30T01:55:52.717Z,98170.06
2023-04-30T01:58:22.786Z,98180.53
2023-04-30T02:00:50.244Z,98179.72
2023-04-30T02:03:18.076Z,98186.84
2023-04-30T02:05:45.631Z,98187.25
2023-04-30T02:08:13.313Z,98194.66
2023-04-30T02:10:41.032Z,98199.16
2023-04-30T02:13:08.596Z,98198.16
2023-04-30T02:15:36.041Z,98207.78
2023-04-30T02:18:03.710Z,98213.72
2023-04-30T02:20:31.303Z,98212.25
2023-04-30T02:22:59.027Z,98219.41
2023-04-30T02:25:26.905Z,98216.53
2023-04-30T02:27:54.362Z,98221.25
2023-04-30T02:30:21.926Z,98225.13
2023-04-30T02:32:49.456Z,98221.88
2023-04-30T02:35:16.908Z,98236.41
2023-04-30T02:37:44.534Z,98232.09
2023-04-30T02:40:12.367Z,98234.75
2023-04-30T02:42:39.865Z,98237.59
2023-04-30T02:45:07.974Z,98233.69
2023-04-30T02:47:35.798Z,98235.72
2023-04-30T02:50:04.194Z,98242.69
2023-04-30T02:52:32.339Z,98242.06
2023-04-30T02:54:59.876Z,98242.88
2023-04-30T02:57:27.424Z,98243.06
2023-04-30T02:59:55.100Z,98251.03
2023-04-30T03:02:23.853Z,98246.09
2023-04-30T03:04:51.955Z,98251.81
2023-04-30T03:07:19.360Z,98260.81
2023-04-30T03:09:46.945Z,98256.69
2023-04-30T03:12:17.076Z,98260.31
2023-04-30T03:14:44.576Z,98263.59
2023-04-30T03:17:11.993Z,98265.44
2023-04-30T03:19:39.455Z,98266.22
2023-04-30T03:22:06.922Z,98266.63
2023-04-30T03:24:34.460Z,98263.97
2023-04-30T03:27:02.167Z,98279.81
2023-04-30T03:29:29.591Z,98274.69
2023-04-30T03:31:57.332Z,98279.34
2023-04-30T03:34:24.908Z,98285.03
2023-04-30T03:36:52.344Z,98291.94
2023-04-30T03:39:19.902Z,98297.00
2023-04-30T03:41:47.323Z,98288.00
2023-04-30T03:44:16.211Z,98296.97
2023-04-30T03:46:43.996Z,98296.53
2023-04-30T03:49:11.772Z,98305.50
2023-04-30T03:51:42.265Z,98303.41
2023-04-30T03:54:10.446Z,98299.56
2023-04-30T03:56:38.320Z,98308.97
2023-04-30T03:59:06.348Z,98312.88
2023-04-30T04:01:34.036Z,98310.97
2023-04-30T04:04:02.470Z,98314.84
2023-04-30T04:06:32.136Z,98319.97
2023-04-30T04:08:59.688Z,98322.22
2023-04-30T04:11:27.232Z,98314.53
2023-04-30T04:13:55.920Z,98321.25
2023-04-30T04:16:23.756Z,98327.78
2023-04-30T04:18:51.608Z,98337.16
2023-04-30T04:21:19.442Z,98338.75
2023-04-30T04:23:46.966Z,98341.22
2023-04-30T04:26:15.083Z,98342.44
2023-04-30T04:28:42.724Z,98344.47
2023-04-30T04:31:10.249Z,98340.38
2023-04-30T04:33:37.710Z,98346.81
2023-04-30T04:36:05.667Z,98348.63
2023-04-30T04:38:33.201Z,98349.25
2023-04-30T04:41:02.296Z,98351.06
2023-04-30T04:43:29.908Z,98347.84
2023-04-30T04:45:57.443Z,98355.06
2023-04-30T04:48:24.959Z,98357.88
2023-04-30T04:50:52.406Z,98361.16
2023-04-30T04:53:20.113Z,98363.50
2023-04-30T04:55:47.506Z,98367.13
2023-04-30T04:58:15.187Z,98367.22
2023-04-30T05:00:42.728Z,98375.34
2023-04-30T05:03:10.544Z,98375.81
2023-04-30T05:05:38.179Z,98364.41
2023-04-30T05:08:05.758Z,98372.72
2023-04-30T05:10:35.053Z,98367.69
2023-04-30T05:13:02.686Z,98377.06
2023-04-30T05:15:31.252Z,98366.00
2023-04-30T05:17:58.795Z,98358.41
2023-04-30T05:20:26.848Z,98370.50
2023-04-30T05:22:54.283Z,98369.03
2023-04-30T05:25:21.818Z,98370.72
2023-04-30T05:27:49.210Z,98368.50
2023-04-30T05:30:16.773Z,98377.13
2023-04-30T05:32:46.243Z,98379.25
2023-04-30T05:35:13.743Z,98380.91
2023-04-30T05:37:41.145Z,98383.56
2023-04-30T05:40:10.310Z,98382.78
2023-04-30T05:42:38.508Z,98383.81
2023-04-30T05:45:06.778Z,98391.25
2023-04-30T05:47:34.243Z,98392.63
2023-04-30T05:50:01.731Z,98388.75
2023-04-30T05:52:29.198Z,98382.50
2023-04-30T05:54:56.722Z,98383.41
2023-04-30T05:57:24.293Z,98389.63
2023-04-30T05:59:51.827Z,98389.72
2023-04-30T06:02:19.407Z,98386.94
2023-04-30T06:04:48.267Z,98388.63
2023-04-30T06:07:15.768Z,98391.78
2023-04-30T06:09:43.242Z,98392.88
2023-04-30T06:12:10.817Z,98389.38
2023-04-30T06:14:38.377Z,98397.03
2023-04-30T06:17:05.788Z,98401.41
2023-04-30T06:19:33.280Z,98400.41
2023-04-30T06:22:01.546Z,98399.13
2023-04-30T06:24:30.508Z,98400.16
2023-04-30T06:26:57.904Z,98403.72
2023-04-30T06:29:25.525Z,98408.47
2023-04-30T06:31:53.082Z,98405.09
2023-04-30T06:34:21.191Z,98402.28
2023-04-30T06:36:48.914Z,98404.50
2023-04-30T06:39:17.387Z,98401.94
2023-04-30T06:41:44.959Z,98402.94
2023-04-30T06:44:13.134Z,98404.38
2023-04-30T06:46:41.830Z,98412.03
2023-04-30T06:49:09.439Z,98406.72
2023-04-30T06:51:36.874Z,98410.25
2023-04-30T06:54:04.470Z,98403.81
2023-04-30T06:56:31.963Z,98415.16
2023-04-30T06:58:59.365Z,98404.22
2023-04-30T07:01:27.075Z,98406.34
2023-04-30T07:03:55.297Z,98405.69
2023-04-30T07:06:23.031Z,98408.97
2023-04-30T07:08:50.533Z,98411.41
2023-04-30T07:11:17.939Z,98415.03
2023-04-30T07:13:45.553Z,98416.28
2023-04-30T07:16:13.083Z,98420.69
2023-04-30T07:18:41.049Z,98423.41
2023-04-30T07:21:08.856Z,98424.50
2023-04-30T07:23:36.342Z,98421.72
2023-04-30T07:26:03.994Z,98428.06
2023-04-30T07:28:31.388Z,98417.25
2023-04-30T07:30:58.850Z,98421.25
2023-04-30T07:33:26.317Z,98417.78
2023-04-30T07:35:54.626Z,98417.78
2023-04-30T07:38:22.132Z,98413.66
2023-04-30T07:40:49.560Z,98419.16
2023-04-30T07:43:17.028Z,98421.75
2023-04-30T07:45:44.758Z,98426.44
2023-04-30T07:48:12.259Z,98427.56
2023-04-30T07:50:39.821Z,98432.16
2023-04-30T07:53:09.548Z,98430.50
2023-04-30T07:55:36.993Z,98434.44
2023-04-30T07:58:04.609Z,98437.66
2023-04-30T08:00:32.220Z,98441.00
2023-04-30T08:03:00.940Z,98432.25
2023-04-30T08:05:28.883Z,98432.03
2023-04-30T08:07:56.415Z,98436.59
2023-04-30T08:10:24.061Z,98438.84
2023-04-30T08:12:51.659Z,98447.53
2023-04-30T08:15:21.924Z,98435.88
2023-04-30T08:17:51.166Z,98436.69
2023-04-30T08:20:18.869Z,98442.72
2023-04-30T08:22:47.104Z,98440.19
2023-04-30T08:25:14.532Z,98450.47
2023-04-30T08:27:41.983Z,98447.06
2023-04-30T08:30:09.794Z,98456.75
2023-04-30T08:32:38.174Z,98459.00
2023-04-30T08:35:06.571Z,98453.06
2023-04-30T08:37:34.527Z,98452.56
2023-04-30T08:40:02.096Z,98449.03
2023-04-30T08:42:36.895Z,98451.09
2023-04-30T08:45:05.101Z,98442.72
2023-04-30T08:47:33.321Z,98448.94
2023-04-30T08:50:01.165Z,98454.84
2023-04-30T08:52:30.345Z,98458.19
2023-04-30T08:54:58.996Z,98458.28
2023-04-30T08:57:26.590Z,98454.34
2023-04-30T08:59:54.814Z,98457.16
2023-04-30T09:02:22.474Z,98461.00
2023-04-30T09:04:50.078Z,98467.41
2023-04-30T09:07:18.831Z,98467.69
2023-04-30T09:09:46.835Z,98472.44
2023-04-30T09:12:20.022Z,98476.19
2023-04-30T09:15:03.657Z,98479.50
2023-04-30T09:17:33.208Z,98478.03
2023-04-30T09:20:08.617Z,98482.13
2023-04-30T09:22:38.072Z,98479.22
2023-04-30T09:25:07.068Z,98476.97
2023-04-30T09:27:34.874Z,98473.94
2023-04-30T09:30:02.732Z,98470.09
2023-04-30T09:32:30.305Z,98471.19
2023-04-30T09:34:57.751Z,98464.94
2023-04-30T09:37:36.555Z,98471.63
2023-04-30T09:40:04.627Z,98459.00
2023-04-30T09:42:32.220Z,98459.06
2023-04-30T09:44:59.975Z,98456.22
2023-04-30T09:47:31.037Z,98461.56
2023-04-30T09:49:59.863Z,98467.22
2023-04-30T09:52:27.452Z,98462.84
2023-04-30T09:54:54.980Z,98460.00
2023-04-30T09:57:24.753Z,98461.13
2023-04-30T09:59:54.158Z,98454.22
2023-04-30T10:02:24.052Z,98444.38
2023-04-30T10:04:56.613Z,98448.41
2023-04-30T10:07:29.587Z,98436.22
2023-04-30T10:10:05.418Z,98438.44
2023-04-30T10:12:51.654Z,98437.94
2023-04-30T10:15:26.509Z,98436.72
2023-04-30T10:18:06.215Z,98442.28
2023-04-30T10:20:39.340Z,98439.41
2023-04-30T10:23:07.448Z,98431.06
2023-04-30T10:25:35.431Z,98429.47
2023-04-30T10:28:04.805Z,98426.94
2023-04-30T10:30:33.158Z,98426.59
2023-04-30T10:33:16.811Z,98431.03
2023-04-30T10:35:53.814Z,98433.59
2023-04-30T10:38:25.590Z,98432.84
2023-04-30T10:40:58.323Z,98433.84
2023-04-30T10:43:26.556Z,98428.44
2023-04-30T10:45:54.106Z,98425.00
2023-04-30T10:48:27.316Z,98412.53
2023-04-30T10:50:59.640Z,98415.97
2023-04-30T10:53:32.189Z,98417.88
2023-04-30T10:56:09.759Z,98426.91
2023-04-30T10:58:39.534Z,98423.44
2023-04-30T11:01:08.693Z,98409.56
2023-04-30T11:03:37.477Z,98413.63
2023-04-30T11:06:12.900Z,98415.75
2023-04-30T11:08:44.472Z,98410.75
2023-04-30T11:11:17.675Z,98410.63
2023-04-30T11:13:47.087Z,98402.78
2023-04-30T11:16:17.576Z,98408.56
2023-04-30T11:18:46.385Z,98403.44
2023-04-30T11:21:14.303Z,98408.59
2023-04-30T11:23:43.631Z,98411.94
2023-04-30T11:26:11.247Z,98414.28
2023-04-30T11:28:38.784Z,98418.75
2023-04-30T11:31:06.434Z,98413.03
2023-04-30T11:33:35.220Z,98415.78
2023-04-30T11:36:02.969Z,98413.06
2023-04-30T11:38:35.461Z,98414.75
2023-04-30T11:41:04.309Z,98413.72
2023-04-30T11:43:33.204Z,98422.47
2023-04-30T11:46:08.495Z,98418.25
2023-04-30T11:48:38.111Z,98429.56
2023-04-30T11:51:15.382Z,98414.78
2023-04-30T11:53:43.536Z,98406.78
2023-04-30T11:56:10.941Z,98399.19
2023-04-30T11:58:39.480Z,98405.28
2023-04-30T12:01:09.700Z,98407.84
2023-04-30T12:03:48.331Z,98407.78
2023-04-30T12:06:24.753Z,98410.50
2023-04-30T12:09:00.221Z,98409.06
2023-04-30T12:11:30.108Z,98400.84
2023-04-30T12:14:07.947Z,98386.31
2023-04-30T12:16:53.460Z,98393.88
2023-04-30T12:19:25.461Z,98393.38
2023-04-30T12:21:55.293Z,98394.44
2023-04-30T12:24:23.857Z,98396.97
2023-04-30T12:26:53.812Z,98396.75
2023-04-30T12:29:22.942Z,98400.41
2023-04-30T12:31:53.241Z,98397.00
2023-04-30T12:34:20.875Z,98390.72
2023-04-30T12:36:48.461Z,98380.78
2023-04-30T12:39:16.547Z,98406.47
2023-04-30T12:41:46.392Z,98401.72
2023-04-30T12:44:22.005Z,98402.19
2023-04-30T12:46:51.389Z,98395.91
2023-04-30T12:49:29.313Z,98389.81
2023-04-30T12:52:15.684Z,98394.28
2023-04-30T12:54:43.230Z,98378.53
2023-04-30T12:57:13.131Z,98380.41
2023-04-30T13:00:01.079Z,98373.19
2023-04-30T13:02:29.678Z,98382.97
2023-04-30T13:04:57.234Z,98370.88
2023-04-30T13:07:25.078Z,98373.75
2023-04-30T13:09:52.795Z,98374.25
2023-04-30T13:12:20.534Z,98367.88
2023-04-30T13:14:48.074Z,98366.16
2023-04-30T13:17:15.654Z,98356.84
2023-04-30T13:19:43.143Z,98364.50
2023-04-30T13:22:10.571Z,98357.69
2023-04-30T13:24:38.051Z,98369.22
2023-04-30T13:27:05.572Z,98362.25
2023-04-30T13:29:33.282Z,98359.41
2023-04-30T13:32:00.803Z,98344.88
2023-04-30T13:34:28.348Z,98342.84
2023-04-30T13:36:55.956Z,98340.81
2023-04-30T13:39:23.513Z,98340.53
2023-04-30T13:41:50.923Z,98336.59
2023-04-30T13:44:18.774Z,98329.50
2023-04-30T13:46:46.226Z,98324.75
2023-04-30T13:49:13.736Z,98321.81
2023-04-30T13:51:41.364Z,98325.25
2023-04-30T13:54:08.864Z,98330.28
2023-04-30T13:56:36.410Z,98333.44
2023-04-30T13:59:04.249Z,98318.63
2023-04-30T14:01:33.117Z,98315.63
2023-04-30T14:04:00.881Z,98318.50
2023-04-30T14:06:29.647Z,98322.34
2023-04-30T14:08:57.367Z,98309.88
2023-04-30T14:11:24.906Z,98315.53
2023-04-30T14:13:52.710Z,98310.75
2023-04-30T14:16:20.985Z,98310.38
2023-04-30T14:18:48.482Z,98310.56
2023-04-30T14:21:16.055Z,98305.88
2023-04-30T14:23:46.662Z,98302.47
2023-04-30T14:26:14.569Z,98313.38
2023-04-30T14:28:42.107Z,98300.75
2023-04-30T14:31:10.560Z,98301.38
2023-04-30T14:33:38.052Z,98303.84
2023-04-30T14:36:06.396Z,98301.94
2023-04-30T14:38:34.212Z,98298.06
2023-04-30T14:41:01.685Z,98290.63
2023-04-30T14:43:29.277Z,98295.44
2023-04-30T14:45:56.870Z,98290.03
2023-04-30T14:48:24.439Z,98292.59
2023-04-30T14:50:52.313Z,98290.56
2023-04-30T14:53:19.752Z,98286.97
2023-04-30T14:55:47.416Z,98289.63
2023-04-30T14:58:14.811Z,98284.44
2023-04-30T15:00:42.226Z,98280.78
2023-04-30T15:03:09.839Z,98276.41
2023-04-30T15:05:37.328Z,98286.19
2023-04-30T15:08:05.054Z,98281.56
2023-04-30T15:10:32.554Z,98285.06
2023-04-30T15:13:00.088Z,98292.06
2023-04-30T15:15:29.196Z,98286.03
2023-04-30T15:18:04.060Z,98274.78
2023-04-30T15:20:31.911Z,98281.53
2023-04-30T15:23:00.146Z,98286.97
2023-04-30T15:25:27.804Z,98278.06
2023-04-30T15:27:55.331Z,98278.63
2023-04-30T15:30:22.811Z,98277.25
2023-04-30T15:32:50.627Z,98282.47
2023-04-30T15:35:18.292Z,98272.13
2023-04-30T15:37:45.704Z,98275.63
2023-04-30T15:40:15.706Z,98274.81
2023-04-30T15:42:43.736Z,98262.56
2023-04-30T15:45:11.290Z,98270.34
2023-04-30T15:47:38.881Z,98272.22
2023-04-30T15:50:07.394Z,98275.38
2023-04-30T15:52:34.916Z,98286.00
2023-04-30T15:55:02.418Z,98278.03
2023-04-30T15:57:29.895Z,98284.41
2023-04-30T15:59:57.598Z,98280.38
2023-04-30T16:02:25.514Z,98281.50
2023-04-30T16:04:52.955Z,98270.25
2023-04-30T16:07:20.400Z,98270.09
2023-04-30T16:09:49.191Z,98266.38
2023-04-30T16:12:16.610Z,98269.09
2023-04-30T16:14:44.102Z,98270.47
2023-04-30T16:17:11.622Z,98269.78
2023-04-30T16:19:39.052Z,98264.31
2023-04-30T16:22:09.047Z,98268.75
2023-04-30T16:24:36.576Z,98257.25
2023-04-30T16:27:04.253Z,98255.44
2023-04-30T16:29:31.700Z,98246.53
2023-04-30T16:31:59.278Z,98243.34
2023-04-30T16:34:26.810Z,98244.06
2023-04-30T16:36:54.255Z,98255.13
2023-04-30T16:39:21.708Z,98246.16
2023-04-30T16:41:49.230Z,98248.69
2023-04-30T16:44:16.667Z,98242.09
2023-04-30T16:46:44.099Z,98252.94
2023-04-30T16:49:11.607Z,98252.06
2023-04-30T16:51:39.126Z,98250.81
2023-04-30T16:54:06.600Z,98251.28
2023-04-30T16:56:34.150Z,98250.81
2023-04-30T16:59:01.686Z,98242.66
2023-04-30T17:01:29.768Z,98245.91
2023-04-30T17:03:57.281Z,98242.50
2023-04-30T17:06:25.169Z,98244.84
2023-04-30T17:08:53.434Z,98249.97
2023-04-30T17:11:23.434Z,98249.75
2023-04-30T17:13:51.148Z,98253.97
2023-04-30T17:16:18.577Z,98249.63
2023-04-30T17:18:46.277Z,98255.47
2023-04-30T17:21:13.776Z,98254.44
2023-04-30T17:23:41.444Z,98252.22
2023-04-30T17:26:10.045Z,98252.44
2023-04-30T17:28:37.585Z,98255.38
2023-04-30T17:31:07.251Z,98254.44
2023-04-30T17:33:35.155Z,98259.69
2023-04-30T17:36:02.742Z,98257.00
2023-04-30T17:38:30.213Z,98254.09
2023-04-30T17:40:57.872Z,98248.28
2023-04-30T17:43:25.446Z,98255.28
2023-04-30T17:45:53.525Z,98255.28
2023-04-30T17:48:21.172Z,98254.91
2023-04-30T17:50:48.801Z,98254.19
2023-04-30T17:53:16.350Z,98252.44
2023-04-30T17:55:43.806Z,98244.31
2023-04-30T17:58:11.654Z,98252.03
2023-04-30T18:00:40.557Z,98252.00
2023-04-30T18:03:08.329Z,98256.41
2023-04-30T18:05:36.087Z,98260.88
2023-04-30T18:08:03.696Z,98258.63
2023-04-30T18:10:31.176Z,98252.09
2023-04-30T18:12:59.705Z,98256.25
2023-04-30T18:15:27.869Z,98271.78
2023-04-30T18:17:55.793Z,98265.69
2023-04-30T18:20:23.248Z,98262.50
2023-04-30T18:22:50.817Z,98263.25
2023-04-30T18:25:19.278Z,98267.34
2023-04-30T18:27:46.773Z,98269.09
2023-04-30T18:30:14.264Z,98270.78
2023-04-30T18:32:43.525Z,98270.94
2023-04-30T18:35:10.997Z,98270.78
2023-04-30T18:37:38.490Z,98272.59
2023-04-30T18:40:07.111Z,98267.75
2023-04-30T18:42:34.812Z,98269.38
2023-04-30T18:45:02.290Z,98268.41
2023-04-30T18:47:31.015Z,98274.22
2023-04-30T18:49:58.875Z,98280.63
2023-04-30T18:52:26.329Z,98286.81
2023-04-30T18:54:54.015Z,98279.03
2023-04-30T18:57:21.437Z,98284.41
2023-04-30T18:59:49.363Z,98284.00
2023-04-30T19:02:17.019Z,98285.09
2023-04-30T19:04:44.468Z,98294.94
2023-04-30T19:07:12.240Z,98300.16
2023-04-30T19:09:39.687Z,98289.66
2023-04-30T19:12:07.484Z,98297.50
2023-04-30T19:14:34.900Z,98297.91
2023-04-30T19:17:02.320Z,98287.88
2023-04-30T19:19:30.089Z,98290.16
2023-04-30T19:21:57.535Z,98293.00
2023-04-30T19:24:25.459Z,98290.56
2023-04-30T19:26:52.977Z,98300.03
2023-04-30T19:29:20.725Z,98294.91
2023-04-30T19:31:48.208Z,98304.50
2023-04-30T19:34:16.136Z,98299.59
2023-04-30T19:36:46.573Z,98295.53
2023-04-30T19:39:14.073Z,98293.88
2023-04-30T19:41:41.589Z,98295.13
2023-04-30T19:44:10.208Z,98290.03
2023-04-30T19:46:37.812Z,98295.53
2023-04-30T19:49:05.328Z,98290.63
2023-04-30T19:51:32.824Z,98290.44
2023-04-30T19:54:00.520Z,98298.44
2023-04-30T19:56:28.122Z,98304.56
2023-04-30T19:58:55.880Z,98304.59
2023-04-30T20:01:23.293Z,98306.66
2023-04-30T20:03:50.961Z,98306.69
2023-04-30T20:06:18.947Z,98303.19
2023-04-30T20:08:46.657Z,98308.34
2023-04-30T20:11:14.228Z,98297.72
2023-04-30T20:13:41.863Z,98302.41
2023-04-30T20:16:12.642Z,98300.78
2023-04-30T20:18:40.459Z,98301.00
2023-04-30T20:21:08.621Z,98300.78
2023-04-30T20:23:39.391Z,98296.09
2023-04-30T20:26:10.846Z,98292.63
2023-04-30T20:28:38.571Z,98291.19
2023-04-30T20:31:07.750Z,98284.03
2023-04-30T20:33:35.439Z,98286.09
2023-04-30T20:36:03.195Z,98285.47
2023-04-30T20:38:31.121Z,98282.00
2023-04-30T20:40:59.222Z,98284.25
2023-04-30T20:43:26.969Z,98285.47
2023-04-30T20:46:00.530Z,98286.69
2023-04-30T20:48:28.018Z,98279.53
2023-04-30T20:50:56.533Z,98279.13
2023-04-30T20:53:23.929Z,98281.97
2023-04-30T20:55:51.593Z,98279.72
2023-04-30T20:58:19.076Z,98278.31
2023-04-30T21:00:46.715Z,98283.19
2023-04-30T21:03:14.451Z,98282.59
2023-04-30T21:05:42.994Z,98280.34
2023-04-30T21:08:10.737Z,98281.34
2023-04-30T21:10:38.351Z,98284.22
2023-04-30T21:13:06.295Z,98281.97
2023-04-30T21:15:35.458Z,98285.59
2023-04-30T21:18:03.335Z,98278.69
2023-04-30T21:20:31.793Z,98283.56
2023-04-30T21:22:59.632Z,98285.00
2023-04-30T21:25:27.382Z,98276.59
2023-04-30T21:27:55.470Z,98279.66
2023-04-30T21:30:25.674Z,98282.94
2023-04-30T21:32:58.858Z,98277.44
2023-04-30T21:35:30.084Z,98275.78
2023-04-30T21:37:57.586Z,98278.66
2023-04-30T21:40:25.137Z,98277.81
2023-04-30T21:42:53.039Z,98280.88
2023-04-30T21:45:20.623Z,98267.41
2023-04-30T21:47:48.697Z,98270.66
2023-04-30T21:50:17.151Z,98266.75
2023-04-30T21:52:44.723Z,98274.50
2023-04-30T21:55:12.478Z,98270.63
2023-04-30T21:57:40.037Z,98268.56
2023-04-30T22:00:17.196Z,98261.38
2023-04-30T22:02:51.186Z,98262.44
2023-04-30T22:05:19.792Z,98262.09
2023-04-30T22:07:48.179Z,98264.34
2023-04-30T22:10:15.670Z,98268.84
2023-04-30T22:12:47.143Z,98260.66
2023-04-30T22:15:15.804Z,98264.69
2023-04-30T22:17:43.278Z,98259.75
2023-04-30T22:20:11.213Z,98261.75
2023-04-30T22:22:38.758Z,98265.63
2023-04-30T22:29:19.950Z,98256.41
2023-04-30T22:31:47.731Z,98256.31
2023-04-30T22:34:16.887Z,98249.94
2023-04-30T22:36:44.586Z,98244.19
2023-04-30T22:39:12.868Z,98246.16
2023-04-30T22:41:40.714Z,98239.00
2023-04-30T22:44:08.492Z,98249.75
2023-04-30T22:46:36.949Z,98238.97
2023-04-30T22:49:04.496Z,98243.63
2023-04-30T22:51:32.224Z,98236.47
2023-04-30T22:53:59.663Z,98227.94
2023-04-30T22:56:27.068Z,98236.44
2023-04-30T22:58:54.565Z,98233.81
2023-04-30T23:01:22.477Z,98230.91
2023-04-30T23:03:49.976Z,98227.22
2023-04-30T23:06:17.582Z,98229.41
2023-04-30T23:08:45.061Z,98228.38
2023-04-30T23:11:12.594Z,98228.94
2023-04-30T23:13:40.784Z,98229.31
2023-04-30T23:16:10.418Z,98222.78
2023-04-30T23:18:38.025Z,98220.63
2023-04-30T23:21:06.191Z,98219.09
2023-04-30T23:23:33.695Z,98225.19
2023-04-30T23:26:01.326Z,98222.75
2023-04-30T23:28:28.856Z,98210.09
2023-04-30T23:30:58.576Z,98219.84
2023-04-30T23:33:26.144Z,98212.25
2023-04-30T23:35:54.004Z,98219.31
2023-04-30T23:38:22.974Z,98218.88
2023-04-30T23:40:50.556Z,98213.34
2023-04-30T23:43:17.911Z,98206.59
2023-04-30T23:45:45.404Z,98204.34
2023-04-30T23:48:13.221Z,98203.31
2023-04-30T23:50:40.796Z,98205.78
2023-04-30T23:53:08.328Z,98199.59
2023-04-30T23:55:35.751Z,98204.09
2023-04-30T23:58:03.232Z,98198.78
